sensor_id;sensor_type;location;lat;lon;timestamp;P1;durP1;ratioP1;P2;durP2;ratioP2
15246;SDS011;7726;48.820;9.248;2023-02-12T00:02:06;28.00;;;20.33;;
15246;SDS011;7726;48.820;9.248;2023-02-12T00:04:34;27.57;;;19.57;;
15246;SDS011;7726;48.820;9.248;2023-02-12T00:07:02;29.67;;;20.23;;
15246;SDS011;7726;48.820;9.248;2023-02-12T00:09:31;26.53;;;20.00;;
15246;SDS011;7726;48.820;9.248;2023-02-12T00:11:58;25.97;;;19.43;;
15246;SDS011;7726;48.820;9.248;2023-02-12T00:14:25;26.10;;;19.70;;
15246;SDS011;7726;48.820;9.248;2023-02-12T00:16:52;26.73;;;20.40;;
15246;SDS011;7726;48.820;9.248;2023-02-12T00:19:19;25.87;;;20.43;;
15246;SDS011;7726;48.820;9.248;2023-02-12T00:21:46;26.30;;;20.00;;
15246;SDS011;7726;48.820;9.248;2023-02-12T00:24:14;26.90;;;20.10;;
15246;SDS011;7726;48.820;9.248;2023-02-12T00:26:42;25.67;;;21.30;;
15246;SDS011;7726;48.820;9.248;2023-02-12T00:29:09;27.40;;;20.93;;
15246;SDS011;7726;48.820;9.248;2023-02-12T00:31:36;28.90;;;20.93;;
15246;SDS011;7726;48.820;9.248;2023-02-12T00:34:03;28.43;;;20.13;;
15246;SDS011;7726;48.820;9.248;2023-02-12T00:36:31;26.10;;;20.27;;
15246;SDS011;7726;48.820;9.248;2023-02-12T00:38:58;28.90;;;20.90;;
15246;SDS011;7726;48.820;9.248;2023-02-12T00:41:26;26.20;;;19.87;;
15246;SDS011;7726;48.820;9.248;2023-02-12T00:43:54;28.67;;;20.93;;
15246;SDS011;7726;48.820;9.248;2023-02-12T00:46:21;24.93;;;19.20;;
15246;SDS011;7726;48.820;9.248;2023-02-12T00:48:49;29.13;;;19.90;;
15246;SDS011;7726;48.820;9.248;2023-02-12T00:51:16;28.30;;;20.77;;
15246;SDS011;7726;48.820;9.248;2023-02-12T00:53:43;26.60;;;19.60;;
15246;SDS011;7726;48.820;9.248;2023-02-12T00:56:10;26.13;;;19.90;;
15246;SDS011;7726;48.820;9.248;2023-02-12T00:58:37;26.93;;;20.33;;
15246;SDS011;7726;48.820;9.248;2023-02-12T01:01:06;26.97;;;18.60;;
15246;SDS011;7726;48.820;9.248;2023-02-12T01:03:33;25.77;;;19.97;;
15246;SDS011;7726;48.820;9.248;2023-02-12T01:06:00;27.93;;;18.60;;
15246;SDS011;7726;48.820;9.248;2023-02-12T01:08:27;25.70;;;20.07;;
15246;SDS011;7726;48.820;9.248;2023-02-12T01:10:56;25.20;;;18.73;;
15246;SDS011;7726;48.820;9.248;2023-02-12T01:13:23;25.63;;;18.53;;
15246;SDS011;7726;48.820;9.248;2023-02-12T01:15:59;25.47;;;18.87;;
15246;SDS011;7726;48.820;9.248;2023-02-12T01:18:28;25.77;;;19.57;;
15246;SDS011;7726;48.820;9.248;2023-02-12T01:20:55;24.70;;;18.93;;
15246;SDS011;7726;48.820;9.248;2023-02-12T01:23:23;25.57;;;19.43;;
15246;SDS011;7726;48.820;9.248;2023-02-12T01:25:50;27.23;;;19.97;;
15246;SDS011;7726;48.820;9.248;2023-02-12T01:28:17;23.97;;;18.33;;
15246;SDS011;7726;48.820;9.248;2023-02-12T01:30:44;25.67;;;19.37;;
15246;SDS011;7726;48.820;9.248;2023-02-12T01:33:11;25.00;;;19.43;;
15246;SDS011;7726;48.820;9.248;2023-02-12T01:35:40;23.77;;;19.10;;
15246;SDS011;7726;48.820;9.248;2023-02-12T01:38:07;24.93;;;19.13;;
15246;SDS011;7726;48.820;9.248;2023-02-12T01:40:34;28.03;;;19.80;;
15246;SDS011;7726;48.820;9.248;2023-02-12T01:43:02;26.67;;;20.37;;
15246;SDS011;7726;48.820;9.248;2023-02-12T01:45:46;28.07;;;19.63;;
15246;SDS011;7726;48.820;9.248;2023-02-12T01:48:15;27.50;;;19.90;;
15246;SDS011;7726;48.820;9.248;2023-02-12T01:50:44;29.57;;;22.27;;
15246;SDS011;7726;48.820;9.248;2023-02-12T01:53:12;27.13;;;19.63;;
15246;SDS011;7726;48.820;9.248;2023-02-12T01:55:44;25.70;;;19.77;;
15246;SDS011;7726;48.820;9.248;2023-02-12T01:58:11;23.07;;;18.07;;
15246;SDS011;7726;48.820;9.248;2023-02-12T02:00:39;27.07;;;19.17;;
15246;SDS011;7726;48.820;9.248;2023-02-12T02:03:06;24.87;;;19.33;;
15246;SDS011;7726;48.820;9.248;2023-02-12T02:05:35;24.77;;;19.37;;
15246;SDS011;7726;48.820;9.248;2023-02-12T02:08:06;25.00;;;18.97;;
15246;SDS011;7726;48.820;9.248;2023-02-12T02:10:33;24.63;;;19.17;;
15246;SDS011;7726;48.820;9.248;2023-02-12T02:13:00;26.83;;;18.80;;
15246;SDS011;7726;48.820;9.248;2023-02-12T02:15:46;24.67;;;19.30;;
15246;SDS011;7726;48.820;9.248;2023-02-12T02:18:16;24.93;;;18.57;;
15246;SDS011;7726;48.820;9.248;2023-02-12T02:20:56;24.87;;;19.00;;
15246;SDS011;7726;48.820;9.248;2023-02-12T02:23:33;30.70;;;20.87;;
15246;SDS011;7726;48.820;9.248;2023-02-12T02:26:13;28.50;;;20.03;;
15246;SDS011;7726;48.820;9.248;2023-02-12T02:28:50;25.83;;;19.70;;
15246;SDS011;7726;48.820;9.248;2023-02-12T02:31:21;25.73;;;18.70;;
15246;SDS011;7726;48.820;9.248;2023-02-12T02:33:53;24.63;;;19.40;;
15246;SDS011;7726;48.820;9.248;2023-02-12T02:36:24;27.00;;;19.80;;
15246;SDS011;7726;48.820;9.248;2023-02-12T02:38:54;26.83;;;20.63;;
15246;SDS011;7726;48.820;9.248;2023-02-12T02:41:24;25.60;;;19.73;;
15246;SDS011;7726;48.820;9.248;2023-02-12T02:43:53;25.87;;;18.87;;
15246;SDS011;7726;48.820;9.248;2023-02-12T02:46:23;27.10;;;20.50;;
15246;SDS011;7726;48.820;9.248;2023-02-12T02:48:51;24.57;;;18.63;;
15246;SDS011;7726;48.820;9.248;2023-02-12T02:51:20;25.43;;;17.87;;
15246;SDS011;7726;48.820;9.248;2023-02-12T02:53:48;25.07;;;19.57;;
15246;SDS011;7726;48.820;9.248;2023-02-12T02:56:18;26.60;;;20.13;;
15246;SDS011;7726;48.820;9.248;2023-02-12T02:58:47;27.70;;;19.60;;
15246;SDS011;7726;48.820;9.248;2023-02-12T03:01:16;33.77;;;20.57;;
15246;SDS011;7726;48.820;9.248;2023-02-12T03:03:47;27.10;;;19.80;;
15246;SDS011;7726;48.820;9.248;2023-02-12T03:06:17;28.03;;;20.03;;
15246;SDS011;7726;48.820;9.248;2023-02-12T03:08:47;26.67;;;19.63;;
15246;SDS011;7726;48.820;9.248;2023-02-12T03:11:17;22.53;;;18.90;;
15246;SDS011;7726;48.820;9.248;2023-02-12T03:13:47;24.70;;;19.03;;
15246;SDS011;7726;48.820;9.248;2023-02-12T03:16:16;22.70;;;18.63;;
15246;SDS011;7726;48.820;9.248;2023-02-12T03:18:46;25.87;;;19.17;;
15246;SDS011;7726;48.820;9.248;2023-02-12T03:21:16;27.20;;;19.77;;
15246;SDS011;7726;48.820;9.248;2023-02-12T03:23:45;23.60;;;18.60;;
15246;SDS011;7726;48.820;9.248;2023-02-12T03:26:16;22.97;;;18.57;;
15246;SDS011;7726;48.820;9.248;2023-02-12T03:28:44;27.67;;;19.27;;
15246;SDS011;7726;48.820;9.248;2023-02-12T03:31:14;25.97;;;19.80;;
15246;SDS011;7726;48.820;9.248;2023-02-12T03:33:46;26.50;;;20.83;;
15246;SDS011;7726;48.820;9.248;2023-02-12T03:36:19;25.03;;;19.43;;
15246;SDS011;7726;48.820;9.248;2023-02-12T03:38:50;26.27;;;19.70;;
15246;SDS011;7726;48.820;9.248;2023-02-12T03:41:20;27.07;;;19.87;;
15246;SDS011;7726;48.820;9.248;2023-02-12T03:43:51;28.43;;;20.30;;
15246;SDS011;7726;48.820;9.248;2023-02-12T03:46:20;24.97;;;19.10;;
15246;SDS011;7726;48.820;9.248;2023-02-12T03:48:50;25.77;;;20.37;;
15246;SDS011;7726;48.820;9.248;2023-02-12T03:51:24;24.70;;;19.13;;
15246;SDS011;7726;48.820;9.248;2023-02-12T03:53:54;23.57;;;18.17;;
15246;SDS011;7726;48.820;9.248;2023-02-12T03:56:23;24.10;;;18.90;;
15246;SDS011;7726;48.820;9.248;2023-02-12T03:58:51;25.00;;;18.77;;
15246;SDS011;7726;48.820;9.248;2023-02-12T04:01:18;27.07;;;19.63;;
15246;SDS011;7726;48.820;9.248;2023-02-12T04:03:45;25.63;;;19.43;;
15246;SDS011;7726;48.820;9.248;2023-02-12T04:06:19;24.90;;;19.67;;
15246;SDS011;7726;48.820;9.248;2023-02-12T04:08:48;26.90;;;19.80;;
15246;SDS011;7726;48.820;9.248;2023-02-12T04:11:19;26.03;;;19.70;;
15246;SDS011;7726;48.820;9.248;2023-02-12T04:13:49;26.07;;;19.93;;
15246;SDS011;7726;48.820;9.248;2023-02-12T04:16:21;25.93;;;18.70;;
15246;SDS011;7726;48.820;9.248;2023-02-12T04:18:49;25.07;;;18.80;;
15246;SDS011;7726;48.820;9.248;2023-02-12T04:21:19;22.70;;;18.80;;
15246;SDS011;7726;48.820;9.248;2023-02-12T04:23:52;26.80;;;19.77;;
15246;SDS011;7726;48.820;9.248;2023-02-12T04:26:22;27.00;;;18.70;;
15246;SDS011;7726;48.820;9.248;2023-02-12T04:28:56;24.93;;;18.90;;
15246;SDS011;7726;48.820;9.248;2023-02-12T04:31:26;23.47;;;18.40;;
15246;SDS011;7726;48.820;9.248;2023-02-12T04:33:57;26.73;;;19.00;;
15246;SDS011;7726;48.820;9.248;2023-02-12T04:36:27;24.00;;;18.90;;
15246;SDS011;7726;48.820;9.248;2023-02-12T04:38:59;26.80;;;18.87;;
15246;SDS011;7726;48.820;9.248;2023-02-12T04:41:29;26.53;;;19.03;;
15246;SDS011;7726;48.820;9.248;2023-02-12T04:43:56;23.00;;;18.40;;
15246;SDS011;7726;48.820;9.248;2023-02-12T04:46:24;27.90;;;19.23;;
15246;SDS011;7726;48.820;9.248;2023-02-12T04:48:52;23.07;;;17.80;;
15246;SDS011;7726;48.820;9.248;2023-02-12T04:51:19;26.00;;;19.10;;
15246;SDS011;7726;48.820;9.248;2023-02-12T04:53:47;29.13;;;19.23;;
15246;SDS011;7726;48.820;9.248;2023-02-12T04:56:15;26.67;;;19.63;;
15246;SDS011;7726;48.820;9.248;2023-02-12T04:58:43;24.33;;;19.10;;
15246;SDS011;7726;48.820;9.248;2023-02-12T05:01:10;25.47;;;19.17;;
15246;SDS011;7726;48.820;9.248;2023-02-12T05:03:37;23.70;;;18.63;;
15246;SDS011;7726;48.820;9.248;2023-02-12T05:06:05;26.50;;;19.60;;
15246;SDS011;7726;48.820;9.248;2023-02-12T05:08:33;25.60;;;18.87;;
15246;SDS011;7726;48.820;9.248;2023-02-12T05:11:04;24.10;;;19.10;;
15246;SDS011;7726;48.820;9.248;2023-02-12T05:13:33;22.83;;;18.57;;
15246;SDS011;7726;48.820;9.248;2023-02-12T05:16:02;24.40;;;18.43;;
15246;SDS011;7726;48.820;9.248;2023-02-12T05:18:29;25.10;;;18.80;;
15246;SDS011;7726;48.820;9.248;2023-02-12T05:20:56;23.30;;;18.50;;
15246;SDS011;7726;48.820;9.248;2023-02-12T05:23:24;23.90;;;18.50;;
15246;SDS011;7726;48.820;9.248;2023-02-12T05:25:52;25.73;;;19.47;;
15246;SDS011;7726;48.820;9.248;2023-02-12T05:28:19;26.37;;;18.70;;
15246;SDS011;7726;48.820;9.248;2023-02-12T05:30:48;23.20;;;18.50;;
15246;SDS011;7726;48.820;9.248;2023-02-12T05:33:15;24.00;;;18.80;;
15246;SDS011;7726;48.820;9.248;2023-02-12T05:35:42;23.60;;;18.93;;
15246;SDS011;7726;48.820;9.248;2023-02-12T05:38:09;27.83;;;19.07;;
15246;SDS011;7726;48.820;9.248;2023-02-12T05:40:36;24.30;;;18.40;;
15246;SDS011;7726;48.820;9.248;2023-02-12T05:43:04;24.90;;;18.60;;
15246;SDS011;7726;48.820;9.248;2023-02-12T05:45:31;26.60;;;18.67;;
15246;SDS011;7726;48.820;9.248;2023-02-12T05:48:00;25.43;;;19.60;;
15246;SDS011;7726;48.820;9.248;2023-02-12T05:50:27;24.00;;;19.13;;
15246;SDS011;7726;48.820;9.248;2023-02-12T05:52:54;28.93;;;20.23;;
15246;SDS011;7726;48.820;9.248;2023-02-12T05:55:21;26.37;;;19.17;;
15246;SDS011;7726;48.820;9.248;2023-02-12T05:57:49;25.87;;;19.60;;
15246;SDS011;7726;48.820;9.248;2023-02-12T06:00:17;24.83;;;19.53;;
15246;SDS011;7726;48.820;9.248;2023-02-12T06:02:44;26.43;;;18.67;;
15246;SDS011;7726;48.820;9.248;2023-02-12T06:05:12;28.33;;;19.53;;
15246;SDS011;7726;48.820;9.248;2023-02-12T06:07:39;23.47;;;18.57;;
15246;SDS011;7726;48.820;9.248;2023-02-12T06:10:07;26.87;;;19.27;;
15246;SDS011;7726;48.820;9.248;2023-02-12T06:12:34;27.80;;;19.90;;
15246;SDS011;7726;48.820;9.248;2023-02-12T06:15:02;28.50;;;20.10;;
15246;SDS011;7726;48.820;9.248;2023-02-12T06:17:29;25.93;;;19.57;;
15246;SDS011;7726;48.820;9.248;2023-02-12T06:19:56;25.07;;;19.73;;
15246;SDS011;7726;48.820;9.248;2023-02-12T06:22:24;24.07;;;18.73;;
15246;SDS011;7726;48.820;9.248;2023-02-12T06:24:53;23.87;;;18.83;;
15246;SDS011;7726;48.820;9.248;2023-02-12T06:27:20;26.13;;;18.93;;
15246;SDS011;7726;48.820;9.248;2023-02-12T06:29:47;21.93;;;18.37;;
15246;SDS011;7726;48.820;9.248;2023-02-12T06:32:14;24.73;;;17.33;;
15246;SDS011;7726;48.820;9.248;2023-02-12T06:34:41;25.80;;;18.80;;
15246;SDS011;7726;48.820;9.248;2023-02-12T06:37:08;27.70;;;19.43;;
15246;SDS011;7726;48.820;9.248;2023-02-12T06:39:37;27.07;;;19.63;;
15246;SDS011;7726;48.820;9.248;2023-02-12T06:42:04;24.17;;;19.43;;
15246;SDS011;7726;48.820;9.248;2023-02-12T06:44:31;26.97;;;19.77;;
15246;SDS011;7726;48.820;9.248;2023-02-12T06:46:58;26.10;;;19.43;;
15246;SDS011;7726;48.820;9.248;2023-02-12T06:49:25;25.73;;;18.43;;
15246;SDS011;7726;48.820;9.248;2023-02-12T06:51:53;22.83;;;17.97;;
15246;SDS011;7726;48.820;9.248;2023-02-12T06:54:20;25.03;;;19.23;;
15246;SDS011;7726;48.820;9.248;2023-02-12T06:56:48;26.30;;;19.47;;
15246;SDS011;7726;48.820;9.248;2023-02-12T06:59:15;27.13;;;19.43;;
15246;SDS011;7726;48.820;9.248;2023-02-12T07:01:43;24.73;;;18.80;;
15246;SDS011;7726;48.820;9.248;2023-02-12T07:04:10;26.97;;;19.43;;
15246;SDS011;7726;48.820;9.248;2023-02-12T07:06:37;23.13;;;18.27;;
15246;SDS011;7726;48.820;9.248;2023-02-12T07:09:05;22.67;;;18.37;;
15246;SDS011;7726;48.820;9.248;2023-02-12T07:11:32;25.93;;;18.00;;
15246;SDS011;7726;48.820;9.248;2023-02-12T07:14:01;25.43;;;19.43;;
15246;SDS011;7726;48.820;9.248;2023-02-12T07:16:28;25.40;;;19.70;;
15246;SDS011;7726;48.820;9.248;2023-02-12T07:18:56;26.10;;;18.73;;
15246;SDS011;7726;48.820;9.248;2023-02-12T07:21:23;23.80;;;19.40;;
15246;SDS011;7726;48.820;9.248;2023-02-12T07:23:51;26.60;;;20.27;;
15246;SDS011;7726;48.820;9.248;2023-02-12T07:26:18;25.63;;;19.40;;
15246;SDS011;7726;48.820;9.248;2023-02-12T07:28:46;26.33;;;20.53;;
15246;SDS011;7726;48.820;9.248;2023-02-12T07:31:15;23.33;;;17.67;;
15246;SDS011;7726;48.820;9.248;2023-02-12T07:33:43;24.60;;;19.83;;
15246;SDS011;7726;48.820;9.248;2023-02-12T07:36:11;26.47;;;19.10;;
15246;SDS011;7726;48.820;9.248;2023-02-12T07:38:39;26.90;;;19.57;;
15246;SDS011;7726;48.820;9.248;2023-02-12T07:41:07;29.80;;;20.57;;
15246;SDS011;7726;48.820;9.248;2023-02-12T07:43:34;23.20;;;19.23;;
15246;SDS011;7726;48.820;9.248;2023-02-12T07:46:05;23.90;;;19.57;;
15246;SDS011;7726;48.820;9.248;2023-02-12T07:48:33;26.60;;;20.17;;
15246;SDS011;7726;48.820;9.248;2023-02-12T07:51:02;22.50;;;19.43;;
15246;SDS011;7726;48.820;9.248;2023-02-12T07:53:29;25.53;;;19.77;;
15246;SDS011;7726;48.820;9.248;2023-02-12T07:56:03;25.80;;;19.90;;
15246;SDS011;7726;48.820;9.248;2023-02-12T07:58:30;27.60;;;20.23;;
15246;SDS011;7726;48.820;9.248;2023-02-12T08:00:57;24.80;;;19.67;;
15246;SDS011;7726;48.820;9.248;2023-02-12T08:03:26;27.07;;;20.33;;
15246;SDS011;7726;48.820;9.248;2023-02-12T08:05:55;25.37;;;20.03;;
15246;SDS011;7726;48.820;9.248;2023-02-12T08:08:22;26.70;;;20.67;;
15246;SDS011;7726;48.820;9.248;2023-02-12T08:10:49;23.23;;;19.97;;
15246;SDS011;7726;48.820;9.248;2023-02-12T08:13:16;28.53;;;20.67;;
15246;SDS011;7726;48.820;9.248;2023-02-12T08:15:43;26.13;;;20.43;;
15246;SDS011;7726;48.820;9.248;2023-02-12T08:18:10;26.93;;;20.90;;
15246;SDS011;7726;48.820;9.248;2023-02-12T08:20:37;26.37;;;21.47;;
15246;SDS011;7726;48.820;9.248;2023-02-12T08:23:06;26.27;;;21.17;;
15246;SDS011;7726;48.820;9.248;2023-02-12T08:25:33;28.87;;;20.93;;
15246;SDS011;7726;48.820;9.248;2023-02-12T08:28:00;28.73;;;21.90;;
15246;SDS011;7726;48.820;9.248;2023-02-12T08:30:27;25.67;;;21.70;;
15246;SDS011;7726;48.820;9.248;2023-02-12T08:32:54;31.73;;;22.87;;
15246;SDS011;7726;48.820;9.248;2023-02-12T08:35:22;26.20;;;21.30;;
15246;SDS011;7726;48.820;9.248;2023-02-12T08:37:49;30.60;;;22.00;;
15246;SDS011;7726;48.820;9.248;2023-02-12T08:40:18;27.77;;;22.30;;
15246;SDS011;7726;48.820;9.248;2023-02-12T08:42:45;29.00;;;22.17;;
15246;SDS011;7726;48.820;9.248;2023-02-12T08:45:12;30.37;;;22.87;;
15246;SDS011;7726;48.820;9.248;2023-02-12T08:47:39;29.50;;;22.60;;
15246;SDS011;7726;48.820;9.248;2023-02-12T08:50:07;29.23;;;21.77;;
15246;SDS011;7726;48.820;9.248;2023-02-12T08:52:34;30.50;;;22.10;;
15246;SDS011;7726;48.820;9.248;2023-02-12T08:55:01;25.97;;;21.67;;
15246;SDS011;7726;48.820;9.248;2023-02-12T08:57:30;27.67;;;21.17;;
15246;SDS011;7726;48.820;9.248;2023-02-12T08:59:58;27.17;;;21.30;;
15246;SDS011;7726;48.820;9.248;2023-02-12T09:02:25;30.57;;;22.83;;
15246;SDS011;7726;48.820;9.248;2023-02-12T09:04:52;28.50;;;21.47;;
15246;SDS011;7726;48.820;9.248;2023-02-12T09:07:19;28.27;;;21.93;;
15246;SDS011;7726;48.820;9.248;2023-02-12T09:09:47;29.23;;;21.33;;
15246;SDS011;7726;48.820;9.248;2023-02-12T09:12:14;30.63;;;23.17;;
15246;SDS011;7726;48.820;9.248;2023-02-12T09:14:42;33.27;;;23.93;;
15246;SDS011;7726;48.820;9.248;2023-02-12T09:17:09;33.07;;;24.40;;
15246;SDS011;7726;48.820;9.248;2023-02-12T09:19:36;30.63;;;24.80;;
15246;SDS011;7726;48.820;9.248;2023-02-12T09:22:04;33.23;;;25.00;;
15246;SDS011;7726;48.820;9.248;2023-02-12T09:24:31;32.43;;;24.00;;
15246;SDS011;7726;48.820;9.248;2023-02-12T09:26:58;34.57;;;23.53;;
15246;SDS011;7726;48.820;9.248;2023-02-12T09:29:25;37.43;;;24.30;;
15246;SDS011;7726;48.820;9.248;2023-02-12T09:31:53;31.70;;;24.30;;
15246;SDS011;7726;48.820;9.248;2023-02-12T09:34:21;30.63;;;24.77;;
15246;SDS011;7726;48.820;9.248;2023-02-12T09:36:48;33.93;;;24.20;;
15246;SDS011;7726;48.820;9.248;2023-02-12T09:39:15;32.57;;;24.30;;
15246;SDS011;7726;48.820;9.248;2023-02-12T09:41:48;34.77;;;25.30;;
15246;SDS011;7726;48.820;9.248;2023-02-12T09:44:19;29.03;;;22.97;;
15246;SDS011;7726;48.820;9.248;2023-02-12T09:46:49;29.97;;;22.33;;
15246;SDS011;7726;48.820;9.248;2023-02-12T09:49:21;32.80;;;23.90;;
15246;SDS011;7726;48.820;9.248;2023-02-12T09:51:50;29.93;;;23.40;;
15246;SDS011;7726;48.820;9.248;2023-02-12T09:54:19;30.70;;;23.73;;
15246;SDS011;7726;48.820;9.248;2023-02-12T09:56:47;32.33;;;23.57;;
15246;SDS011;7726;48.820;9.248;2023-02-12T09:59:17;31.03;;;22.97;;
15246;SDS011;7726;48.820;9.248;2023-02-12T10:01:48;27.97;;;20.13;;
15246;SDS011;7726;48.820;9.248;2023-02-12T10:04:15;25.07;;;18.97;;
15246;SDS011;7726;48.820;9.248;2023-02-12T10:06:44;24.13;;;18.77;;
15246;SDS011;7726;48.820;9.248;2023-02-12T10:09:19;26.53;;;19.40;;
15246;SDS011;7726;48.820;9.248;2023-02-12T10:11:50;24.27;;;19.77;;
15246;SDS011;7726;48.820;9.248;2023-02-12T10:17:07;29.50;;;18.00;;
15246;SDS011;7726;48.820;9.248;2023-02-12T10:19:45;24.17;;;17.50;;
15246;SDS011;7726;48.820;9.248;2023-02-12T10:22:20;21.73;;;17.40;;
15246;SDS011;7726;48.820;9.248;2023-02-12T10:24:56;19.77;;;15.63;;
15246;SDS011;7726;48.820;9.248;2023-02-12T10:27:33;19.03;;;15.73;;
15246;SDS011;7726;48.820;9.248;2023-02-12T10:30:03;19.83;;;15.13;;
15246;SDS011;7726;48.820;9.248;2023-02-12T10:32:39;19.47;;;14.10;;
15246;SDS011;7726;48.820;9.248;2023-02-12T10:35:11;14.77;;;12.40;;
15246;SDS011;7726;48.820;9.248;2023-02-12T10:37:41;15.10;;;10.70;;
15246;SDS011;7726;48.820;9.248;2023-02-12T10:40:13;12.10;;;8.77;;
15246;SDS011;7726;48.820;9.248;2023-02-12T10:42:43;10.40;;;7.87;;
15246;SDS011;7726;48.820;9.248;2023-02-12T10:45:11;8.97;;;6.80;;
15246;SDS011;7726;48.820;9.248;2023-02-12T10:47:39;6.73;;;5.20;;
15246;SDS011;7726;48.820;9.248;2023-02-12T10:50:12;5.97;;;4.70;;
15246;SDS011;7726;48.820;9.248;2023-02-12T10:52:44;3.33;;;2.93;;
15246;SDS011;7726;48.820;9.248;2023-02-12T10:55:23;3.13;;;2.83;;
15246;SDS011;7726;48.820;9.248;2023-02-12T10:57:50;4.13;;;2.77;;
15246;SDS011;7726;48.820;9.248;2023-02-12T11:00:22;2.67;;;2.47;;
15246;SDS011;7726;48.820;9.248;2023-02-12T11:02:58;2.47;;;2.10;;
15246;SDS011;7726;48.820;9.248;2023-02-12T11:05:28;4.47;;;3.93;;
15246;SDS011;7726;48.820;9.248;2023-02-12T11:07:57;4.50;;;3.50;;
15246;SDS011;7726;48.820;9.248;2023-02-12T11:12:52;6.80;;;5.57;;
15246;SDS011;7726;48.820;9.248;2023-02-12T11:15:21;6.87;;;5.10;;
15246;SDS011;7726;48.820;9.248;2023-02-12T11:17:54;5.83;;;5.03;;
15246;SDS011;7726;48.820;9.248;2023-02-12T11:20:22;7.83;;;5.17;;
15246;SDS011;7726;48.820;9.248;2023-02-12T11:22:50;5.03;;;4.33;;
15246;SDS011;7726;48.820;9.248;2023-02-12T11:25:20;4.77;;;4.07;;
15246;SDS011;7726;48.820;9.248;2023-02-12T11:27:58;5.00;;;4.07;;
15246;SDS011;7726;48.820;9.248;2023-02-12T11:30:25;4.60;;;4.07;;
15246;SDS011;7726;48.820;9.248;2023-02-12T11:32:52;6.13;;;4.57;;
15246;SDS011;7726;48.820;9.248;2023-02-12T11:35:20;5.27;;;4.70;;
15246;SDS011;7726;48.820;9.248;2023-02-12T11:37:53;7.30;;;5.23;;
15246;SDS011;7726;48.820;9.248;2023-02-12T11:40:22;6.53;;;5.33;;
15246;SDS011;7726;48.820;9.248;2023-02-12T11:42:50;7.73;;;5.40;;
15246;SDS011;7726;48.820;9.248;2023-02-12T11:45:19;6.87;;;5.33;;
15246;SDS011;7726;48.820;9.248;2023-02-12T11:47:47;6.47;;;5.37;;
15246;SDS011;7726;48.820;9.248;2023-02-12T11:50:17;7.83;;;5.37;;
15246;SDS011;7726;48.820;9.248;2023-02-12T11:52:47;6.70;;;5.50;;
15246;SDS011;7726;48.820;9.248;2023-02-12T11:55:18;7.33;;;6.07;;
15246;SDS011;7726;48.820;9.248;2023-02-12T11:57:48;6.77;;;5.20;;
15246;SDS011;7726;48.820;9.248;2023-02-12T12:00:17;8.80;;;5.17;;
15246;SDS011;7726;48.820;9.248;2023-02-12T12:02:47;6.57;;;4.93;;
15246;SDS011;7726;48.820;9.248;2023-02-12T12:05:15;6.63;;;5.37;;
15246;SDS011;7726;48.820;9.248;2023-02-12T12:07:44;6.83;;;5.33;;
15246;SDS011;7726;48.820;9.248;2023-02-12T12:10:14;6.07;;;5.23;;
15246;SDS011;7726;48.820;9.248;2023-02-12T12:12:44;5.30;;;4.53;;
15246;SDS011;7726;48.820;9.248;2023-02-12T12:15:16;7.57;;;4.70;;
15246;SDS011;7726;48.820;9.248;2023-02-12T12:18:04;5.67;;;4.70;;
15246;SDS011;7726;48.820;9.248;2023-02-12T12:20:53;4.87;;;4.37;;
15246;SDS011;7726;48.820;9.248;2023-02-12T12:23:20;5.20;;;3.97;;
15246;SDS011;7726;48.820;9.248;2023-02-12T12:25:51;4.83;;;4.33;;
15246;SDS011;7726;48.820;9.248;2023-02-12T12:28:27;5.60;;;4.63;;
15246;SDS011;7726;48.820;9.248;2023-02-12T12:31:03;5.37;;;4.77;;
15246;SDS011;7726;48.820;9.248;2023-02-12T12:33:36;4.87;;;4.17;;
15246;SDS011;7726;48.820;9.248;2023-02-12T12:36:17;6.33;;;4.60;;
15246;SDS011;7726;48.820;9.248;2023-02-12T12:38:50;5.67;;;4.30;;
15246;SDS011;7726;48.820;9.248;2023-02-12T12:41:22;5.60;;;4.57;;
15246;SDS011;7726;48.820;9.248;2023-02-12T12:43:54;4.83;;;4.00;;
15246;SDS011;7726;48.820;9.248;2023-02-12T12:46:33;5.57;;;4.73;;
15246;SDS011;7726;48.820;9.248;2023-02-12T12:51:58;5.20;;;4.63;;
15246;SDS011;7726;48.820;9.248;2023-02-12T12:54:30;5.50;;;4.80;;
15246;SDS011;7726;48.820;9.248;2023-02-12T12:57:00;4.90;;;4.40;;
15246;SDS011;7726;48.820;9.248;2023-02-12T12:59:36;5.27;;;4.50;;
15246;SDS011;7726;48.820;9.248;2023-02-12T13:07:52;4.70;;;3.87;;
15246;SDS011;7726;48.820;9.248;2023-02-12T13:10:24;5.33;;;4.33;;
15246;SDS011;7726;48.820;9.248;2023-02-12T13:13:12;5.43;;;4.20;;
15246;SDS011;7726;48.820;9.248;2023-02-12T13:15:42;5.77;;;3.90;;
15246;SDS011;7726;48.820;9.248;2023-02-12T13:18:13;4.47;;;4.00;;
15246;SDS011;7726;48.820;9.248;2023-02-12T13:20:45;4.67;;;4.10;;
15246;SDS011;7726;48.820;9.248;2023-02-12T13:23:19;5.50;;;4.30;;
15246;SDS011;7726;48.820;9.248;2023-02-12T13:25:51;5.83;;;4.63;;
15246;SDS011;7726;48.820;9.248;2023-02-12T13:28:25;5.63;;;4.07;;
15246;SDS011;7726;48.820;9.248;2023-02-12T13:30:55;6.17;;;4.63;;
15246;SDS011;7726;48.820;9.248;2023-02-12T13:33:24;5.27;;;4.17;;
15246;SDS011;7726;48.820;9.248;2023-02-12T13:35:51;5.63;;;3.80;;
15246;SDS011;7726;48.820;9.248;2023-02-12T13:38:23;8.27;;;5.33;;
15246;SDS011;7726;48.820;9.248;2023-02-12T13:40:51;3.83;;;3.23;;
15246;SDS011;7726;48.820;9.248;2023-02-12T13:43:24;3.73;;;3.40;;
15246;SDS011;7726;48.820;9.248;2023-02-12T13:45:57;7.07;;;3.70;;
15246;SDS011;7726;48.820;9.248;2023-02-12T13:48:39;3.53;;;3.03;;
15246;SDS011;7726;48.820;9.248;2023-02-12T13:51:10;4.40;;;3.50;;
15246;SDS011;7726;48.820;9.248;2023-02-12T13:53:49;4.67;;;3.30;;
15246;SDS011;7726;48.820;9.248;2023-02-12T13:56:24;3.90;;;3.07;;
15246;SDS011;7726;48.820;9.248;2023-02-12T13:58:54;2.87;;;2.47;;
15246;SDS011;7726;48.820;9.248;2023-02-12T14:01:34;4.47;;;4.07;;
15246;SDS011;7726;48.820;9.248;2023-02-12T14:04:13;3.83;;;3.17;;
15246;SDS011;7726;48.820;9.248;2023-02-12T14:06:49;4.20;;;2.83;;
15246;SDS011;7726;48.820;9.248;2023-02-12T14:09:19;3.93;;;2.93;;
15246;SDS011;7726;48.820;9.248;2023-02-12T14:11:48;3.40;;;2.73;;
15246;SDS011;7726;48.820;9.248;2023-02-12T14:14:22;3.20;;;2.50;;
15246;SDS011;7726;48.820;9.248;2023-02-12T14:16:50;3.20;;;2.37;;
15246;SDS011;7726;48.820;9.248;2023-02-12T14:19:52;2.40;;;2.20;;
15246;SDS011;7726;48.820;9.248;2023-02-12T14:28:07;3.40;;;2.40;;
15246;SDS011;7726;48.820;9.248;2023-02-12T14:30:38;2.50;;;2.10;;
15246;SDS011;7726;48.820;9.248;2023-02-12T14:35:42;3.90;;;2.03;;
15246;SDS011;7726;48.820;9.248;2023-02-12T14:41:13;4.03;;;1.90;;
15246;SDS011;7726;48.820;9.248;2023-02-12T14:46:45;2.40;;;2.20;;
15246;SDS011;7726;48.820;9.248;2023-02-12T14:49:17;2.37;;;2.10;;
15246;SDS011;7726;48.820;9.248;2023-02-12T14:51:49;2.37;;;2.17;;
15246;SDS011;7726;48.820;9.248;2023-02-12T14:54:17;2.10;;;1.90;;
15246;SDS011;7726;48.820;9.248;2023-02-12T14:56:47;3.30;;;2.00;;
15246;SDS011;7726;48.820;9.248;2023-02-12T14:59:16;3.27;;;2.40;;
15246;SDS011;7726;48.820;9.248;2023-02-12T15:01:45;2.00;;;1.87;;
15246;SDS011;7726;48.820;9.248;2023-02-12T15:04:15;3.33;;;2.37;;
15246;SDS011;7726;48.820;9.248;2023-02-12T15:06:48;1.77;;;1.67;;
15246;SDS011;7726;48.820;9.248;2023-02-12T15:09:19;4.50;;;2.00;;
15246;SDS011;7726;48.820;9.248;2023-02-12T15:11:48;2.00;;;1.83;;
15246;SDS011;7726;48.820;9.248;2023-02-12T15:14:17;2.40;;;2.13;;
15246;SDS011;7726;48.820;9.248;2023-02-12T15:16:50;2.20;;;2.00;;
15246;SDS011;7726;48.820;9.248;2023-02-12T15:19:31;2.00;;;1.90;;
15246;SDS011;7726;48.820;9.248;2023-02-12T15:22:00;3.23;;;2.20;;
15246;SDS011;7726;48.820;9.248;2023-02-12T15:24:27;2.80;;;2.00;;
15246;SDS011;7726;48.820;9.248;2023-02-12T15:26:55;2.00;;;1.80;;